createdAt,value
2022-10-26T00:01:39.280Z,97741.89
2022-10-26T00:04:09.280Z,97740.34
2022-10-26T00:06:39.385Z,97743.46
2022-10-26T00:09:08.087Z,97745.98
2022-10-26T00:11:38.238Z,97739.96
2022-10-26T00:14:08.268Z,97737.07
2022-10-26T00:16:38.770Z,97736.30
2022-10-26T00:19:08.258Z,97730.98
2022-10-26T00:21:38.171Z,97739.55
2022-10-26T00:24:07.781Z,97740.17
2022-10-26T00:26:37.265Z,97740.98
2022-10-26T00:29:06.696Z,97739.66
2022-10-26T00:31:36.622Z,97740.02
2022-10-26T00:34:06.468Z,97746.81
2022-10-26T00:36:35.812Z,97751.82
2022-10-26T00:39:05.425Z,97748.66
2022-10-26T00:41:35.642Z,97751.20
2022-10-26T00:44:23.877Z,97757.77
2022-10-26T00:46:53.705Z,97763.42
2022-10-26T00:49:23.628Z,97764.64
2022-10-26T00:51:53.742Z,97762.69
2022-10-26T00:54:23.288Z,97764.21
2022-10-26T00:56:56.419Z,97762.52
2022-10-26T00:59:27.116Z,97757.02
2022-10-26T01:01:58.359Z,97760.17
2022-10-26T01:04:28.790Z,97754.56
2022-10-26T01:06:58.361Z,97753.45
2022-10-26T01:09:28.068Z,97753.05
2022-10-26T01:11:57.230Z,97749.69
2022-10-26T01:14:28.145Z,97745.86
2022-10-26T01:17:14.874Z,97742.52
2022-10-26T01:20:02.738Z,97746.66
2022-10-26T01:22:32.105Z,97744.74
2022-10-26T01:25:15.134Z,97745.17
2022-10-26T01:27:50.075Z,97742.26
2022-10-26T01:30:20.289Z,97740.50
2022-10-26T01:33:07.923Z,97734.56
2022-10-26T01:35:36.809Z,97735.08
2022-10-26T01:38:09.860Z,97736.67
2022-10-26T01:40:43.904Z,97735.83
2022-10-26T01:43:14.236Z,97740.79
2022-10-26T01:45:45.886Z,97742.80
2022-10-26T01:48:18.157Z,97739.77
2022-10-26T01:50:48.887Z,97737.52
2022-10-26T01:53:20.615Z,97735.67
2022-10-26T01:55:54.013Z,97738.39
2022-10-26T01:58:38.665Z,97738.79
2022-10-26T02:01:20.680Z,97737.92
2022-10-26T02:03:53.429Z,97736.48
2022-10-26T02:06:52.164Z,97739.46
2022-10-26T02:09:27.925Z,97746.13
2022-10-26T02:11:59.097Z,97743.44
2022-10-26T02:14:34.339Z,97742.23
2022-10-26T02:17:08.234Z,97744.52
2022-10-26T02:19:44.580Z,97748.38
2022-10-26T02:22:22.883Z,97747.05
2022-10-26T02:24:53.756Z,97748.71
2022-10-26T02:27:32.456Z,97753.30
2022-10-26T02:30:03.527Z,97753.11
2022-10-26T02:32:36.097Z,97756.04
2022-10-26T02:35:06.201Z,97760.30
2022-10-26T02:37:37.565Z,97765.56
2022-10-26T02:40:10.312Z,97767.14
2022-10-26T02:42:43.471Z,97768.38
2022-10-26T02:45:16.392Z,97772.98
2022-10-26T02:47:47.393Z,97772.02
2022-10-26T02:50:19.139Z,97767.98
2022-10-26T02:53:02.832Z,97769.45
2022-10-26T02:55:37.163Z,97772.82
2022-10-26T02:58:09.430Z,97775.23
2022-10-26T03:00:39.753Z,97775.94
2022-10-26T03:03:08.514Z,97780.04
2022-10-26T03:05:37.508Z,97783.83
2022-10-26T03:08:06.890Z,97776.50
2022-10-26T03:10:40.720Z,97776.73
2022-10-26T03:13:10.608Z,97780.23
2022-10-26T03:15:40.661Z,97778.25
2022-10-26T03:18:10.409Z,97783.77
2022-10-26T03:20:39.667Z,97784.45
2022-10-26T03:23:09.064Z,97788.14
2022-10-26T03:25:39.072Z,97788.27
2022-10-26T03:28:08.370Z,97790.88
2022-10-26T03:30:36.843Z,97791.61
2022-10-26T03:33:07.243Z,97789.24
2022-10-26T03:35:37.735Z,97790.48
2022-10-26T03:38:07.105Z,97796.25
2022-10-26T03:40:36.922Z,97791.48
2022-10-26T03:43:06.890Z,97797.42
2022-10-26T03:45:36.060Z,97802.91
2022-10-26T03:48:06.629Z,97797.94
2022-10-26T03:50:36.886Z,97795.23
2022-10-26T03:53:05.983Z,97800.66
2022-10-26T03:55:35.210Z,97798.96
2022-10-26T03:58:04.909Z,97799.95
2022-10-26T04:00:35.028Z,97805.82
2022-10-26T04:03:04.716Z,97805.92
2022-10-26T04:05:33.773Z,97807.75
2022-10-26T04:08:06.249Z,97811.43
2022-10-26T04:10:36.135Z,97816.52
2022-10-26T04:13:05.614Z,97813.64
2022-10-26T04:15:34.488Z,97810.77
2022-10-26T04:18:03.928Z,97809.17
2022-10-26T04:20:34.902Z,97808.23
2022-10-26T04:23:05.053Z,97810.45
2022-10-26T04:25:34.360Z,97812.50
2022-10-26T04:28:04.069Z,97814.66
2022-10-26T04:30:34.193Z,97811.88
2022-10-26T04:33:04.810Z,97813.31
2022-10-26T04:35:34.320Z,97814.52
2022-10-26T04:38:05.077Z,97815.02
2022-10-26T04:40:34.925Z,97815.30
2022-10-26T04:43:04.108Z,97816.54
2022-10-26T04:45:33.322Z,97819.05
2022-10-26T04:48:06.418Z,97824.42
2022-10-26T04:50:35.234Z,97823.91
2022-10-26T04:53:05.882Z,97827.47
2022-10-26T04:55:34.769Z,97832.75
2022-10-26T04:58:03.452Z,97837.30
2022-10-26T05:00:33.259Z,97838.70
2022-10-26T05:03:02.956Z,97841.61
2022-10-26T05:05:32.398Z,97844.07
2022-10-26T05:08:00.944Z,97847.77
2022-10-26T05:10:29.226Z,97849.81
2022-10-26T05:12:58.739Z,97856.16
2022-10-26T05:15:27.766Z,97857.92
2022-10-26T05:17:57.706Z,97857.27
2022-10-26T05:20:31.466Z,97858.68
2022-10-26T05:23:01.556Z,97860.77
2022-10-26T05:25:32.192Z,97862.75
2022-10-26T05:28:01.592Z,97864.77
2022-10-26T05:30:30.386Z,97867.66
2022-10-26T05:32:59.879Z,97865.84
2022-10-26T05:35:28.567Z,97868.67
2022-10-26T05:37:57.453Z,97869.53
2022-10-26T05:40:26.040Z,97874.52
2022-10-26T05:43:00.155Z,97876.80
2022-10-26T05:45:29.559Z,97880.46
2022-10-26T05:48:01.603Z,97886.02
2022-10-26T05:50:31.638Z,97891.14
2022-10-26T05:53:00.738Z,97895.27
2022-10-26T05:55:29.722Z,97896.21
2022-10-26T05:57:58.404Z,97900.02
2022-10-26T06:00:28.188Z,97905.01
2022-10-26T06:02:56.603Z,97911.42
2022-10-26T06:05:28.170Z,97910.94
2022-10-26T06:07:56.838Z,97911.92
2022-10-26T06:10:25.523Z,97913.92
2022-10-26T06:12:54.107Z,97918.89
2022-10-26T06:15:22.802Z,97924.25
2022-10-26T06:18:10.829Z,97924.29
2022-10-26T06:20:57.477Z,97928.27
2022-10-26T06:23:26.020Z,97930.13
2022-10-26T06:25:54.391Z,97932.65
2022-10-26T06:28:33.748Z,97938.15
2022-10-26T06:31:02.114Z,97938.42
2022-10-26T06:33:31.264Z,97940.07
2022-10-26T06:36:13.712Z,97940.55
2022-10-26T06:38:44.699Z,97944.26
2022-10-26T06:41:19.388Z,97949.38
2022-10-26T06:43:48.719Z,97945.65
2022-10-26T06:46:17.064Z,97944.84
2022-10-26T06:48:54.455Z,97947.55
2022-10-26T06:51:23.851Z,97950.94
2022-10-26T06:53:57.656Z,97957.64
2022-10-26T06:56:26.864Z,97958.02
2022-10-26T06:58:56.389Z,97960.98
2022-10-26T07:01:24.751Z,97956.64
2022-10-26T07:03:53.219Z,97957.64
2022-10-26T07:06:21.492Z,97960.56
2022-10-26T07:08:50.588Z,97958.70
2022-10-26T07:11:18.961Z,97957.01
2022-10-26T07:13:47.245Z,97955.52
2022-10-26T07:16:15.620Z,97960.47
2022-10-26T07:18:44.107Z,97959.75
2022-10-26T07:21:12.390Z,97959.65
2022-10-26T07:23:40.750Z,97956.41
2022-10-26T07:26:09.137Z,97947.64
2022-10-26T07:28:37.827Z,97946.28
2022-10-26T07:31:06.095Z,97941.71
2022-10-26T07:33:36.915Z,97938.23
2022-10-26T07:36:11.247Z,97933.73
2022-10-26T07:38:39.928Z,97936.97
2022-10-26T07:41:08.311Z,97939.65
2022-10-26T07:43:36.589Z,97936.50
2022-10-26T07:46:05.478Z,97942.17
2022-10-26T07:48:33.927Z,97953.52
2022-10-26T07:51:03.304Z,97952.71
2022-10-26T07:53:31.837Z,97949.69
2022-10-26T07:56:00.226Z,97953.41
2022-10-26T07:58:28.809Z,97955.55
2022-10-26T08:00:57.656Z,97960.46
2022-10-26T08:03:26.167Z,97962.89
2022-10-26T08:05:56.260Z,97964.05
2022-10-26T08:08:24.671Z,97960.19
2022-10-26T08:10:53.461Z,97963.88
2022-10-26T08:13:21.937Z,97960.85
2022-10-26T08:15:50.317Z,97961.73
2022-10-26T08:18:18.692Z,97956.58
2022-10-26T08:20:47.381Z,97956.75
2022-10-26T08:23:15.661Z,97959.88
2022-10-26T08:25:43.934Z,97961.83
2022-10-26T08:28:12.413Z,97966.36
2022-10-26T08:30:40.702Z,97963.11
2022-10-26T08:33:10.815Z,97968.51
2022-10-26T08:35:39.196Z,97973.38
2022-10-26T08:38:07.565Z,97977.27
2022-10-26T08:40:38.295Z,97980.80
2022-10-26T08:43:24.697Z,97984.41
2022-10-26T08:45:57.278Z,97988.42
2022-10-26T08:48:28.417Z,97988.45
2022-10-26T08:51:01.608Z,97989.59
2022-10-26T08:53:32.860Z,97989.36
2022-10-26T08:56:27.250Z,97992.50
2022-10-26T08:59:14.261Z,97998.30
2022-10-26T09:01:42.529Z,97995.86
2022-10-26T09:04:13.472Z,97996.73
2022-10-26T09:06:57.636Z,97998.82
2022-10-26T09:09:31.940Z,97995.61
2022-10-26T09:12:11.376Z,97996.73
2022-10-26T09:15:04.941Z,97998.40
2022-10-26T09:17:36.295Z,98002.08
2022-10-26T09:20:27.094Z,98002.27
2022-10-26T09:23:16.262Z,98001.80
2022-10-26T09:25:49.557Z,97999.71
2022-10-26T09:28:19.267Z,97994.55
2022-10-26T09:30:48.463Z,97989.80
2022-10-26T09:33:18.191Z,97991.57
2022-10-26T09:35:46.449Z,97995.14
2022-10-26T09:38:35.331Z,97988.09
2022-10-26T09:41:22.428Z,97985.93
2022-10-26T09:43:58.388Z,97989.36
2022-10-26T09:46:35.260Z,97986.05
2022-10-26T09:49:08.520Z,97989.60
2022-10-26T09:51:38.485Z,97988.33
2022-10-26T09:54:14.014Z,97993.59
2022-10-26T09:56:44.029Z,97999.24
2022-10-26T09:59:13.543Z,97997.10
2022-10-26T10:01:42.649Z,97997.36
2022-10-26T10:04:12.130Z,97999.63
2022-10-26T10:06:41.029Z,98002.58
2022-10-26T10:09:16.877Z,97998.05
2022-10-26T10:11:55.334Z,98003.73
2022-10-26T10:14:25.212Z,98003.36
2022-10-26T10:16:56.042Z,98010.63
2022-10-26T10:19:26.406Z,98012.48
2022-10-26T10:21:57.307Z,98015.41
2022-10-26T10:24:33.058Z,98014.64
2022-10-26T10:27:15.878Z,98013.30
2022-10-26T10:29:50.158Z,98012.47
2022-10-26T10:32:27.978Z,98015.36
2022-10-26T10:34:57.186Z,98013.66
2022-10-26T10:37:27.826Z,98011.86
2022-10-26T10:40:07.053Z,98011.95
2022-10-26T10:42:40.340Z,98011.84
2022-10-26T10:45:19.578Z,98008.94
2022-10-26T10:47:59.839Z,98002.61
2022-10-26T10:50:29.135Z,98000.27
2022-10-26T10:53:19.630Z,98002.52
2022-10-26T10:55:53.843Z,98004.41
2022-10-26T10:58:27.657Z,98008.88
2022-10-26T11:00:56.744Z,98013.39
2022-10-26T11:03:26.080Z,98012.39
2022-10-26T11:06:13.382Z,98005.93
2022-10-26T11:08:48.306Z,98002.46
2022-10-26T11:11:23.141Z,98001.44
2022-10-26T11:14:00.943Z,98004.31
2022-10-26T11:16:32.068Z,98007.53
2022-10-26T11:19:13.155Z,98008.14
2022-10-26T11:21:44.931Z,98005.76
2022-10-26T11:24:13.488Z,98005.62
2022-10-26T11:26:53.269Z,98004.47
2022-10-26T11:29:43.477Z,98008.82
2022-10-26T11:32:15.177Z,98008.56
2022-10-26T11:35:01.066Z,98010.42
2022-10-26T11:37:29.594Z,98010.89
2022-10-26T11:40:16.767Z,98006.77
2022-10-26T11:42:48.401Z,98002.94
2022-10-26T11:45:20.553Z,98004.73
2022-10-26T11:47:54.044Z,97998.95
2022-10-26T11:50:24.737Z,97997.20
2022-10-26T11:52:58.011Z,97999.49
2022-10-26T11:55:26.297Z,98007.35
2022-10-26T11:57:54.976Z,98004.95
2022-10-26T12:00:23.455Z,98003.13
2022-10-26T12:02:56.036Z,98003.41
2022-10-26T12:05:44.481Z,98003.88
2022-10-26T12:08:34.057Z,98005.00
2022-10-26T12:11:10.038Z,98007.50
2022-10-26T12:13:48.020Z,98005.38
2022-10-26T12:16:30.322Z,98007.69
2022-10-26T12:19:01.783Z,98006.41
2022-10-26T12:21:31.486Z,98008.59
2022-10-26T12:24:22.513Z,98006.88
2022-10-26T12:26:52.001Z,98010.02
2022-10-26T12:29:29.285Z,98007.62
2022-10-26T12:31:58.478Z,98011.23
2022-10-26T12:34:30.038Z,98011.11
2022-10-26T12:36:58.309Z,98019.12
2022-10-26T12:39:33.652Z,98023.66
2022-10-26T12:42:04.794Z,98026.42
2022-10-26T12:44:35.226Z,98030.98
2022-10-26T12:47:04.826Z,98032.19
2022-10-26T12:49:51.744Z,98030.84
2022-10-26T12:52:28.207Z,98032.70
2022-10-26T12:55:15.224Z,98032.86
2022-10-26T12:57:43.905Z,98029.17
2022-10-26T13:00:16.896Z,98029.47
2022-10-26T13:03:04.221Z,98035.17
2022-10-26T13:05:35.785Z,98040.03
2022-10-26T13:08:06.778Z,98037.82
2022-10-26T13:10:36.220Z,98030.75
2022-10-26T13:13:06.229Z,98030.82
2022-10-26T13:15:52.429Z,98030.38
2022-10-26T13:18:22.854Z,98030.19
2022-10-26T13:20:53.590Z,98036.96
2022-10-26T13:23:26.504Z,98032.52
2022-10-26T13:26:13.159Z,98035.16
2022-10-26T13:28:41.769Z,98035.82
2022-10-26T13:31:10.038Z,98035.72
2022-10-26T13:33:41.484Z,98038.93
2022-10-26T13:36:27.477Z,98035.77
2022-10-26T13:38:58.317Z,98035.55
2022-10-26T13:41:32.606Z,98035.59
2022-10-26T13:44:05.003Z,98033.07
2022-10-26T13:46:36.457Z,98032.64
2022-10-26T13:49:09.000Z,98029.98
2022-10-26T13:51:43.470Z,98032.57
2022-10-26T13:54:20.125Z,98035.16
2022-10-26T13:57:01.921Z,98036.40
2022-10-26T13:59:32.244Z,98034.80
2022-10-26T14:02:26.835Z,98033.88
2022-10-26T14:05:00.332Z,98036.14
2022-10-26T14:07:37.345Z,98032.23
2022-10-26T14:10:06.471Z,98031.38
2022-10-26T14:12:35.093Z,98034.39
2022-10-26T14:15:07.376Z,98034.95
2022-10-26T14:17:36.357Z,98035.62
2022-10-26T14:20:05.417Z,98033.73
2022-10-26T14:22:34.552Z,98038.86
2022-10-26T14:25:03.246Z,98041.27
2022-10-26T14:27:33.256Z,98046.47
2022-10-26T14:32:50.681Z,98055.61
2022-10-26T14:35:22.544Z,98056.09
2022-10-26T14:38:13.863Z,98055.84
2022-10-26T14:40:42.555Z,98053.09
2022-10-26T14:43:18.098Z,98056.34
2022-10-26T14:45:51.050Z,98054.08
2022-10-26T14:48:22.839Z,98055.88
2022-10-26T14:51:10.067Z,98059.64
2022-10-26T14:53:40.285Z,98056.66
2022-10-26T14:56:29.139Z,98059.73
2022-10-26T14:58:58.541Z,98063.58
2022-10-26T15:01:31.626Z,98063.62
2022-10-26T15:04:07.197Z,98059.55
2022-10-26T15:06:40.994Z,98060.24
2022-10-26T15:09:28.818Z,98060.05
2022-10-26T15:11:57.199Z,98064.56
2022-10-26T15:14:25.776Z,98065.13
2022-10-26T15:16:55.590Z,98070.38
2022-10-26T15:19:24.597Z,98075.67
2022-10-26T15:21:54.097Z,98076.77
2022-10-26T15:24:33.239Z,98076.37
2022-10-26T15:27:05.389Z,98077.73
2022-10-26T15:29:44.008Z,98081.16
2022-10-26T15:32:31.222Z,98087.35
2022-10-26T15:35:11.692Z,98090.79
2022-10-26T15:37:40.125Z,98096.81
2022-10-26T15:40:08.748Z,98100.14
2022-10-26T15:42:40.928Z,98100.58
2022-10-26T15:45:21.592Z,98100.89
2022-10-26T15:47:52.332Z,98105.55
2022-10-26T15:50:22.845Z,98109.10
2022-10-26T15:52:55.569Z,98107.75
2022-10-26T15:55:24.008Z,98108.25
2022-10-26T15:57:52.751Z,98106.38
2022-10-26T16:00:21.477Z,98112.02
2022-10-26T16:02:49.853Z,98112.57
2022-10-26T16:05:18.323Z,98111.73
2022-10-26T16:07:48.248Z,98111.31
2022-10-26T16:10:20.824Z,98119.59
2022-10-26T16:12:50.617Z,98123.13
2022-10-26T16:15:23.423Z,98127.99
2022-10-26T16:17:52.991Z,98133.06
2022-10-26T16:20:27.959Z,98136.23
2022-10-26T16:22:56.436Z,98136.64
2022-10-26T16:25:25.501Z,98140.23
2022-10-26T16:27:54.839Z,98140.45
2022-10-26T16:30:26.997Z,98143.06
2022-10-26T16:32:57.945Z,98144.30
2022-10-26T16:35:26.332Z,98147.27
2022-10-26T16:37:54.806Z,98150.49
2022-10-26T16:40:22.973Z,98152.07
2022-10-26T16:42:53.728Z,98151.26
2022-10-26T16:45:22.187Z,98153.98
2022-10-26T16:47:50.774Z,98156.02
2022-10-26T16:50:22.429Z,98159.10
2022-10-26T16:52:50.604Z,98157.83
2022-10-26T16:55:19.184Z,98157.87
2022-10-26T16:57:47.491Z,98156.38
2022-10-26T17:00:16.246Z,98154.52
2022-10-26T17:02:44.613Z,98153.17
2022-10-26T17:05:13.208Z,98154.71
2022-10-26T17:07:41.588Z,98150.16
2022-10-26T17:10:09.962Z,98155.18
2022-10-26T17:12:38.448Z,98155.88
2022-10-26T17:15:07.236Z,98155.95
2022-10-26T17:17:35.507Z,98159.84
2022-10-26T17:20:04.506Z,98159.84
2022-10-26T17:22:33.391Z,98160.34
2022-10-26T17:25:01.572Z,98161.97
2022-10-26T17:27:29.839Z,98159.86
2022-10-26T17:29:58.119Z,98165.29
2022-10-26T17:32:26.392Z,98161.61
2022-10-26T17:34:54.569Z,98162.18
2022-10-26T17:37:22.777Z,98163.30
2022-10-26T17:39:51.218Z,98165.30
2022-10-26T17:42:19.497Z,98166.30
2022-10-26T17:44:47.874Z,98168.27
2022-10-26T17:47:16.150Z,98169.90
2022-10-26T17:49:44.432Z,98169.69
2022-10-26T17:52:12.807Z,98170.41
2022-10-26T17:54:41.082Z,98169.41
2022-10-26T17:57:09.459Z,98173.04
2022-10-26T17:59:38.048Z,98174.03
2022-10-26T18:02:06.746Z,98176.54
2022-10-26T18:04:35.206Z,98179.27
2022-10-26T18:07:03.484Z,98175.25
2022-10-26T18:09:31.759Z,98179.75
2022-10-26T18:12:00.040Z,98181.55
2022-10-26T18:14:28.208Z,98178.49
2022-10-26T18:16:56.487Z,98178.09
2022-10-26T18:19:24.629Z,98179.05
2022-10-26T18:21:52.934Z,98174.77
2022-10-26T18:24:21.211Z,98175.42
2022-10-26T18:26:49.487Z,98175.73
2022-10-26T18:29:18.071Z,98181.88
2022-10-26T18:31:46.345Z,98186.32
2022-10-26T18:34:14.624Z,98186.13
2022-10-26T18:36:42.797Z,98187.67
2022-10-26T18:39:11.076Z,98190.21
2022-10-26T18:41:40.063Z,98192.32
2022-10-26T18:44:09.157Z,98194.13
2022-10-26T18:46:42.834Z,98195.61
2022-10-26T18:49:12.162Z,98200.16
2022-10-26T18:51:40.442Z,98201.64
2022-10-26T18:54:08.919Z,98201.97
2022-10-26T18:56:37.399Z,98204.66
2022-10-26T18:59:06.191Z,98212.47
2022-10-26T19:01:35.904Z,98215.72
2022-10-26T19:04:06.290Z,98219.22
2022-10-26T19:06:36.038Z,98218.32
2022-10-26T19:09:05.028Z,98221.03
2022-10-26T19:11:33.415Z,98226.55
2022-10-26T19:14:01.892Z,98230.73
2022-10-26T19:16:45.067Z,98234.36
2022-10-26T19:19:16.612Z,98241.84
2022-10-26T19:21:49.135Z,98240.69
2022-10-26T19:24:19.288Z,98242.66
2022-10-26T19:26:48.558Z,98245.38
2022-10-26T19:29:17.658Z,98248.24
2022-10-26T19:31:46.951Z,98251.30
2022-10-26T19:34:15.949Z,98253.35
2022-10-26T19:36:46.489Z,98257.61
2022-10-26T19:39:15.780Z,98263.57
2022-10-26T19:41:45.073Z,98265.21
2022-10-26T19:44:14.862Z,98272.19
2022-10-26T19:46:43.955Z,98276.30
2022-10-26T19:49:13.288Z,98278.11
2022-10-26T19:51:42.068Z,98281.02
2022-10-26T19:54:10.344Z,98281.04
2022-10-26T19:56:38.650Z,98281.77
2022-10-26T19:59:08.343Z,98282.71
2022-10-26T20:01:36.862Z,98286.17
2022-10-26T20:04:06.834Z,98293.59
2022-10-26T20:06:35.305Z,98295.65
2022-10-26T20:09:04.165Z,98295.60
2022-10-26T20:11:32.686Z,98295.68
2022-10-26T20:14:01.267Z,98295.80
2022-10-26T20:16:29.544Z,98294.95
2022-10-26T20:19:00.484Z,98298.38
2022-10-26T20:21:28.855Z,98299.34
2022-10-26T20:23:57.442Z,98303.88
2022-10-26T20:26:28.504Z,98306.40
2022-10-26T20:28:57.472Z,98311.91
2022-10-26T20:31:25.861Z,98312.48
2022-10-26T20:33:54.227Z,98313.55
2022-10-26T20:36:22.915Z,98318.45
2022-10-26T20:38:52.222Z,98321.52
2022-10-26T20:41:20.901Z,98317.86
2022-10-26T20:43:51.375Z,98324.00
2022-10-26T20:46:23.557Z,98323.58
2022-10-26T20:48:53.200Z,98328.30
2022-10-26T20:51:26.603Z,98331.14
2022-10-26T20:54:01.954Z,98326.28
2022-10-26T20:56:31.557Z,98326.00
2022-10-26T20:59:01.572Z,98331.40
2022-10-26T21:01:31.385Z,98334.71
2022-10-26T21:04:00.883Z,98334.06
2022-10-26T21:06:29.779Z,98332.63
2022-10-26T21:08:58.289Z,98331.10
2022-10-26T21:11:26.833Z,98332.57
2022-10-26T21:13:55.318Z,98334.71
2022-10-26T21:16:23.909Z,98330.35
2022-10-26T21:18:52.497Z,98327.08
2022-10-26T21:21:20.870Z,98325.53
2022-10-26T21:23:49.238Z,98324.13
2022-10-26T21:26:17.522Z,98324.05
2022-10-26T21:28:46.307Z,98328.41
2022-10-26T21:31:16.832Z,98330.25
2022-10-26T21:33:46.238Z,98333.64
2022-10-26T21:36:15.341Z,98332.42
2022-10-26T21:38:45.347Z,98332.79
2022-10-26T21:41:18.033Z,98331.04
2022-10-26T21:43:48.561Z,98332.16
2022-10-26T21:46:18.069Z,98332.38
2022-10-26T21:48:47.470Z,98334.38
2022-10-26T21:51:17.379Z,98334.14
2022-10-26T21:53:46.988Z,98337.80
2022-10-26T21:56:17.325Z,98338.90
2022-10-26T21:58:46.757Z,98346.85
2022-10-26T22:01:17.527Z,98342.11
2022-10-26T22:03:48.124Z,98340.83
2022-10-26T22:08:48.664Z,98339.89
2022-10-26T22:11:19.266Z,98338.19
2022-10-26T22:13:48.564Z,98340.38
2022-10-26T22:16:21.546Z,98338.69
2022-10-26T22:18:51.286Z,98343.02
2022-10-26T22:21:22.194Z,98340.73
2022-10-26T22:23:51.391Z,98338.27
2022-10-26T22:26:21.615Z,98338.89
2022-10-26T22:28:52.028Z,98342.96
2022-10-26T22:34:07.557Z,98342.98
2022-10-26T22:36:37.035Z,98340.59
2022-10-26T22:39:06.135Z,98344.33
2022-10-26T22:41:34.930Z,98348.83
2022-10-26T22:44:04.659Z,98347.86
2022-10-26T22:46:33.905Z,98349.95
2022-10-26T22:49:04.690Z,98350.05
2022-10-26T22:51:34.702Z,98350.42
2022-10-26T22:54:05.091Z,98351.30
2022-10-26T22:56:34.716Z,98349.55
2022-10-26T22:59:04.678Z,98349.52
2022-10-26T23:01:37.105Z,98348.61
2022-10-26T23:04:05.995Z,98351.80
2022-10-26T23:06:35.309Z,98349.86
2022-10-26T23:09:04.504Z,98351.13
2022-10-26T23:11:33.689Z,98350.54
2022-10-26T23:14:03.422Z,98355.85
2022-10-26T23:16:32.282Z,98357.98
2022-10-26T23:19:01.085Z,98355.49
2022-10-26T23:21:30.187Z,98356.23
2022-10-26T23:23:59.168Z,98357.29
2022-10-26T23:26:27.647Z,98358.67
2022-10-26T23:28:56.540Z,98358.35
2022-10-26T23:31:27.344Z,98358.20
2022-10-26T23:33:57.648Z,98355.44
2022-10-26T23:36:26.381Z,98357.69
2022-10-26T23:38:57.015Z,98355.81
2022-10-26T23:41:26.626Z,98355.90
2022-10-26T23:43:56.019Z,98354.50
2022-10-26T23:46:24.790Z,98359.84
2022-10-26T23:48:53.184Z,98356.91
2022-10-26T23:51:23.008Z,98355.66
2022-10-26T23:53:53.118Z,98353.55
2022-10-26T23:56:22.116Z,98352.86
2022-10-26T23:58:51.096Z,98353.70
